My Meet Scores
Skylar Clark, Flipstar Gymnastics Academy - MyMeetScores.com
Top100 | Top Teams | Upcoming Meets | Completed Meets | Latest | Add Scores | Help| Support | Bookmark and Share

Skylar Clark, Flipstar Gymnastics Academy
Personal Bests
LevelVault BarsBeamFloorAA
39.4508.850 9.4259.25036.175
49.3759.175 9.8009.42536.800
69.4259.250 9.4509.67537.425
79.3008.900 9.6759.55037.000
Meet Scores
Date Meet Team Session Level Division Vault Bars Beam Floor AA
2019-03-29 Illinois Level 7 & 8 State Meet Flipstar Gymnastics Academy 7 7 Jr E 9.300 3 8.300 21 9.575 2 9.550 5T 36.725 12
2019-03-01 2019 MEGA Spring Invite Flipstar Gymnastics Academy All 7 All Ages 9.175 25T 8.625 30T 9.675 4T 9.525 6T 37.000 14
2019-02-23 Kinetic Classic 2019 Flipstar Gymnastics Academy 1 7 Middle 9.100 6T 8.750 9T 9.350 2T 9.225 7T 36.425 5
2019-02-08 Midwest Twisters Harley Meet Womens Flipstar Gymnastics Academy O02 7 12 yrs. 9.175 2 8.550 10 9.150 3T 8.900 13 35.775 5
2019-01-25 King Arthur Invitational Flipstar Gymnastics Academy 10 7 JR 8.525 9 8.300 10 9.475 1 9.300 4 35.600 4
2019-01-11 Circle of Stars Gymnastics Flipstar Gymnastics Academy B03 7 Junior B 9.175 3 8.900 5 9.475 2 8.950 5T 36.500 3
2018-12-07 Horton Invite Flipstar Gymnastics Academy All 7 Ch 8.700 9T 7.125 15 8.850 7 9.200 7 33.875 14
2018-03-16 2018 Illinois Level 6, 9, 10 State Championships Flipstar Gymnastics Academy 07 6 Ch E 9.150 10 9.175 8 9.425 5T 9.675 2T 37.425 5
2018-02-23 Kinetic Classic Flipstar Gymnastics Academy 9 6 Middle 9.200 17T 8.650 55T 9.275 17T 9.250 41T 36.375 35T
2018-02-16 Big Classic Flipstar Gymnastics Academy 1A 6 Junior B 9.150 4 8.650 9 9.450 3 9.400 5 36.650 4
2018-02-09 IGI Chicago Style Gymnastics Meet Flipstar Gymnastics Academy 1 6 111 State L6 A 8.650 20 8.250 23 9.325 4 9.375 2 35.600 15
2018-01-26 King Arthur Invitational Flipstar Gymnastics Academy 1 6 JR 8.825 7 9.250 1 9.325 2 9.375 4 36.775 2
2017-12-08 Horton Invite At IWU Shirk Center Flipstar Gymnastics Academy All 6 Ch 9.425 1 9.175 3 9.175 12 9.400 9 37.175 3
2017-11-17 SCGA Classic Flipstar Gymnastics Academy 3 6 JrB 9.400 2 8.800 4 9.375 2 9.150 9 36.725 4
2017-03-10 2017 Illinois Level 4 State Championships Flipstar Gymnastics Academy 4 4 Youth D 9.175 5T 8.200 27T 9.800 1 9.325 5 36.500 8
2017-02-24 Kinetic Classic Flipstar Gymnastics Academy 5,6 4 All Ages 9.375 5 8.500 88T 9.400 19T 8.750 82T 36.025 51T
2017-02-17 Big Classic Flipstar Gymnastics Academy B 4 Child C 9.000 14T 9.100 14T 9.275 13 9.425 1 36.800 8
2017-02-10 IGI Chicago Style Gymnastics Meet Flipstar Gymnastics Academy 633L 4 JrB 8.950 10 8.450 18 8.800 16 9.375 6 35.575 13
2016-12-09 Horton Invitational Flipstar Gymnastics Academy 2 4 JrD 8.750 7 9.175 5 9.375 2 9.100 5 36.400 4
2016-11-11 2016 Illinois Judges Cup Flipstar Gymnastics Academy R4 4 9 Year Old 8.850 3 8.200 5 9.550 1 8.300 11 34.900 4
2016-03-10 2016 Illinois Level 4 State Meet Flipstar Gymnastics Academy All 4 Child-E 8.450 22 6.425 30 9.150 9 8.850 14 32.875 30
2016-02-20 Big Classic Flipstar Gymnastics Academy 5B 4 Child B 7.950 18 8.475 15 8.850 12T 9.250 1T 34.525 12
2016-02-12 IGI Chicago Style Gymnastics Meet Flipstar Gymnastics Academy 611 4 JrA 8.550 14 8.350 17 8.800 15 8.675 13 34.375 16
2016-01-29 Circle Of Stars Gymnastics Invitational Flipstar Gymnastics Academy 2D14 4 9 8.325 9 7.950 9 9.125 3T 9.000 2 34.400 6
2016-01-22 Sand Dollar/Whitlow Invitational Flipstar Gymnastics Academy A10 4 Jr A 8.400 5 8.350 6 8.575 4 8.800 4 34.125 5
2015-12-11 St. Nick Invite Flipstar Gymnastics Academy 2B 4 Child 8.400 9 8.200 12T 9.400 2 8.700 2T 34.700 4T
2015-03-12 2015 Illinois Level 3 State Championship Flipstar Gymnastics Academy All 3 Child-F 8.450 29 8.550 25 9.425 1 9.000 18 35.425 22
2015-02-21 BIG Classic Flipstar Gymnastics Academy 1A 3 Child B 9.450 1 8.550 13 0.000 22 9.225 5 27.225 22
2015-02-13 IGI Chicago Style Gymnastics Meet Flipstar Gymnastics Academy 232 3 8 & younge 9.125 15 8.175 19 8.675 11T 9.250 10T 35.225 13
2015-01-30 Circle Of Stars Gymnastics Invitational Flipstar Gymnastics Academy 2 3 8 8.450 96T 8.475 68T 9.050 17T 9.050 28T 35.025 50
2015-01-23 King Arthur Invitational Flipstar Gymnastics Academy 9A 3 Jr 9.300 6 8.850 11 9.075 3 8.950 7 36.175 5
Get your scores on
a t-shirt, pin, or hoodie

www.lazysuits.com